createdAt,value
2023-04-22T00:00:54.595Z,25.00
2023-04-22T00:01:54.609Z,25.00
2023-04-22T00:02:54.700Z,0.00
2023-04-22T00:03:54.952Z,0.00
2023-04-22T00:04:54.900Z,0.00
2023-04-22T00:05:54.732Z,0.00
2023-04-22T00:06:54.631Z,0.00
2023-04-22T00:07:54.611Z,0.00
2023-04-22T00:08:55.305Z,8.37
2023-04-22T00:09:54.596Z,23.27
2023-04-22T00:10:54.604Z,26.45
2023-04-22T00:11:54.596Z,25.00
2023-04-22T00:12:54.610Z,25.00
2023-04-22T00:13:54.604Z,25.00
2023-04-22T00:14:54.606Z,25.62
2023-04-22T00:15:54.650Z,25.00
2023-04-22T00:16:54.593Z,26.97
2023-04-22T00:17:54.641Z,28.11
2023-04-22T00:18:54.618Z,24.94
2023-04-22T00:19:54.608Z,25.00
2023-04-22T00:20:54.600Z,25.81
2023-04-22T00:21:54.605Z,26.32
2023-04-22T00:22:54.592Z,26.32
2023-04-22T00:23:54.601Z,26.78
2023-04-22T00:24:54.594Z,25.00
2023-04-22T00:25:54.595Z,26.27
2023-04-22T00:26:54.598Z,26.43
2023-04-22T00:27:54.598Z,28.84
2023-04-22T00:28:54.626Z,25.00
2023-04-22T00:29:54.627Z,25.00
2023-04-22T00:30:54.640Z,25.34
2023-04-22T00:31:54.701Z,26.50
2023-04-22T00:32:54.797Z,25.07
2023-04-22T00:33:54.684Z,25.77
2023-04-22T00:34:54.666Z,26.67
2023-04-22T00:35:54.776Z,25.94
2023-04-22T00:36:54.690Z,27.17
2023-04-22T00:37:54.692Z,26.49
2023-04-22T00:38:54.704Z,25.90
2023-04-22T00:39:54.710Z,27.28
2023-04-22T00:40:54.716Z,26.86
2023-04-22T00:41:54.786Z,26.67
2023-04-22T00:42:54.732Z,26.91
2023-04-22T00:43:54.739Z,26.40
2023-04-22T00:44:54.782Z,28.03
2023-04-22T00:45:54.761Z,27.35
2023-04-22T00:46:54.835Z,25.67
2023-04-22T00:47:54.887Z,28.07
2023-04-22T00:48:54.780Z,26.11
2023-04-22T00:49:54.826Z,26.99
2023-04-22T00:50:54.794Z,27.41
2023-04-22T00:51:54.800Z,27.99
2023-04-22T00:52:54.824Z,26.29
2023-04-22T00:53:54.823Z,27.12
2023-04-22T00:54:54.842Z,28.59
2023-04-22T00:55:55.323Z,26.44
2023-04-22T00:56:54.855Z,27.84
2023-04-22T00:57:54.870Z,29.21
2023-04-22T00:58:54.879Z,28.59
2023-04-22T00:59:54.894Z,28.06
2023-04-22T01:00:54.959Z,31.62
2023-04-22T01:01:54.949Z,28.09
2023-04-22T01:02:55.110Z,27.53
2023-04-22T01:03:55.187Z,27.32
2023-04-22T01:04:54.966Z,25.91
2023-04-22T01:05:55.001Z,26.32
2023-04-22T01:06:55.000Z,30.99
2023-04-22T01:07:55.024Z,30.18
2023-04-22T01:08:55.027Z,27.79
2023-04-22T01:09:55.088Z,26.93
2023-04-22T01:10:55.057Z,26.69
2023-04-22T01:11:55.070Z,26.67
2023-04-22T01:12:55.093Z,25.00
2023-04-22T01:13:55.131Z,31.00
2023-04-22T01:14:55.118Z,27.55
2023-04-22T01:15:55.334Z,28.23
2023-04-22T01:16:55.237Z,28.85
2023-04-22T01:17:55.238Z,27.80
2023-04-22T01:18:55.184Z,30.86
2023-04-22T01:19:55.197Z,25.40
2023-04-22T01:20:55.229Z,26.81
2023-04-22T01:21:55.858Z,27.17
2023-04-22T01:22:55.230Z,27.13
2023-04-22T01:23:55.247Z,26.95
2023-04-22T01:24:55.265Z,28.03
2023-04-22T01:25:55.315Z,29.32
2023-04-22T01:26:55.294Z,28.02
2023-04-22T01:27:55.300Z,31.96
2023-04-22T01:28:55.308Z,27.85
2023-04-22T01:29:55.332Z,27.11
2023-04-22T01:30:55.356Z,27.79
2023-04-22T01:31:55.392Z,28.81
2023-04-22T01:32:55.432Z,27.21
2023-04-22T01:33:55.382Z,25.31
2023-04-22T01:34:55.401Z,28.15
2023-04-22T01:35:55.422Z,25.60
2023-04-22T01:36:55.431Z,27.92
2023-04-22T01:37:55.461Z,28.81
2023-04-22T01:38:55.467Z,28.73
2023-04-22T01:39:55.480Z,27.70
2023-04-22T01:40:55.491Z,27.46
2023-04-22T01:41:55.509Z,28.73
2023-04-22T01:42:55.523Z,26.56
2023-04-22T01:43:55.526Z,29.10
2023-04-22T01:44:55.555Z,26.43
2023-04-22T01:45:55.576Z,29.00
2023-04-22T01:46:55.601Z,25.00
2023-04-22T01:47:55.757Z,30.77
2023-04-22T01:48:55.639Z,31.52
2023-04-22T01:49:55.636Z,29.16
2023-04-22T01:50:55.655Z,28.77
2023-04-22T01:51:55.679Z,27.62
2023-04-22T01:52:55.695Z,28.90
2023-04-22T01:53:55.701Z,28.66
2023-04-22T01:54:55.716Z,29.32
2023-04-22T01:55:55.733Z,30.49
2023-04-22T01:56:56.364Z,27.42
2023-04-22T01:57:56.353Z,26.66
2023-04-22T01:58:55.757Z,29.49
2023-04-22T01:59:55.763Z,25.48
2023-04-22T02:00:55.784Z,27.52
2023-04-22T02:01:55.907Z,29.51
2023-04-22T02:02:55.881Z,28.60
2023-04-22T02:03:55.876Z,31.46
2023-04-22T02:04:55.943Z,27.28
2023-04-22T02:05:55.891Z,29.30
2023-04-22T02:06:55.916Z,31.01
2023-04-22T02:07:55.919Z,29.58
2023-04-22T02:08:55.932Z,28.49
2023-04-22T02:09:55.956Z,25.00
2023-04-22T02:10:55.963Z,31.78
2023-04-22T02:11:55.982Z,28.79
2023-04-22T02:12:55.996Z,29.19
2023-04-22T02:13:56.014Z,32.02
2023-04-22T02:14:56.040Z,28.35
2023-04-22T02:15:56.087Z,28.52
2023-04-22T02:16:56.070Z,27.36
2023-04-22T02:17:56.087Z,28.90
2023-04-22T02:18:56.088Z,25.88
2023-04-22T02:19:56.130Z,31.75
2023-04-22T02:20:56.153Z,27.74
2023-04-22T02:21:56.152Z,29.06
2023-04-22T02:22:56.161Z,29.36
2023-04-22T02:23:56.169Z,29.64
2023-04-22T02:24:56.185Z,28.46
2023-04-22T02:25:56.220Z,29.76
2023-04-22T02:26:56.860Z,27.73
2023-04-22T02:27:56.236Z,29.48
2023-04-22T02:28:56.257Z,28.30
2023-04-22T02:29:56.270Z,28.59
2023-04-22T02:30:56.333Z,30.59
2023-04-22T02:31:56.334Z,29.79
2023-04-22T02:32:56.404Z,30.89
2023-04-22T02:33:56.339Z,26.50
2023-04-22T02:34:56.361Z,28.19
2023-04-22T02:35:56.378Z,30.01
2023-04-22T02:36:56.468Z,29.51
2023-04-22T02:37:57.377Z,26.26
2023-04-22T02:38:56.436Z,25.62
2023-04-22T02:39:56.440Z,31.64
2023-04-22T02:40:57.379Z,28.93
2023-04-22T02:41:56.476Z,30.11
2023-04-22T02:42:56.496Z,28.57
2023-04-22T02:43:56.547Z,27.95
2023-04-22T02:44:56.551Z,28.32
2023-04-22T02:45:56.569Z,27.40
2023-04-22T02:46:56.677Z,25.67
2023-04-22T02:47:56.646Z,30.29
2023-04-22T02:48:56.615Z,28.54
2023-04-22T02:49:56.639Z,29.38
2023-04-22T02:50:56.891Z,27.11
2023-04-22T02:51:56.678Z,27.47
2023-04-22T02:52:56.718Z,29.11
2023-04-22T02:53:57.378Z,30.29
2023-04-22T02:54:56.739Z,30.61
2023-04-22T02:55:56.751Z,27.99
2023-04-22T02:56:56.761Z,25.68
2023-04-22T02:57:56.783Z,27.87
2023-04-22T02:58:56.806Z,26.87
2023-04-22T02:59:56.823Z,27.88
2023-04-22T03:00:56.920Z,28.56
2023-04-22T03:01:56.917Z,26.13
2023-04-22T03:02:57.055Z,26.42
2023-04-22T03:03:57.090Z,25.84
2023-04-22T03:04:56.906Z,27.98
2023-04-22T03:05:56.930Z,27.34
2023-04-22T03:06:56.955Z,27.02
2023-04-22T03:07:57.385Z,27.65
2023-04-22T03:08:57.910Z,29.43
2023-04-22T03:09:57.040Z,26.31
2023-04-22T03:10:57.055Z,28.20
2023-04-22T03:11:57.883Z,27.99
2023-04-22T03:12:57.102Z,29.39
2023-04-22T03:13:57.125Z,27.41
2023-04-22T03:14:57.132Z,28.56
2023-04-22T03:15:57.160Z,30.53
2023-04-22T03:16:58.191Z,28.54
2023-04-22T03:17:57.451Z,30.06
2023-04-22T03:18:57.894Z,31.53
2023-04-22T03:19:57.213Z,28.82
2023-04-22T03:20:57.228Z,29.14
2023-04-22T03:21:57.249Z,29.63
2023-04-22T03:22:57.264Z,29.07
2023-04-22T03:23:57.285Z,28.07
2023-04-22T03:24:57.341Z,29.56
2023-04-22T03:25:57.323Z,29.75
2023-04-22T03:26:57.338Z,28.54
2023-04-22T03:27:57.349Z,27.41
2023-04-22T03:28:57.371Z,26.42
2023-04-22T03:29:57.401Z,28.93
2023-04-22T03:30:57.416Z,28.99
2023-04-22T03:31:57.475Z,30.81
2023-04-22T03:32:58.472Z,25.87
2023-04-22T03:33:57.454Z,30.14
2023-04-22T03:34:57.477Z,30.89
2023-04-22T03:35:57.511Z,28.80
2023-04-22T03:36:58.041Z,28.40
2023-04-22T03:37:57.540Z,27.37
2023-04-22T03:38:57.568Z,29.22
2023-04-22T03:39:57.586Z,26.54
2023-04-22T03:40:57.629Z,29.56
2023-04-22T03:41:57.611Z,27.82
2023-04-22T03:42:57.641Z,27.13
2023-04-22T03:44:00.318Z,30.20
2023-04-22T03:44:57.658Z,30.42
2023-04-22T03:45:57.710Z,30.91
2023-04-22T03:46:57.633Z,31.24
2023-04-22T03:47:57.732Z,30.75
2023-04-22T03:48:57.633Z,29.66
2023-04-22T03:49:57.615Z,30.84
2023-04-22T03:50:57.610Z,30.92
2023-04-22T03:51:57.610Z,30.17
2023-04-22T03:52:57.654Z,28.83
2023-04-22T03:53:57.606Z,29.32
2023-04-22T03:54:57.584Z,28.02
2023-04-22T03:55:57.582Z,26.90
2023-04-22T03:56:58.431Z,29.72
2023-04-22T03:57:57.568Z,29.32
2023-04-22T03:58:57.572Z,28.75
2023-04-22T03:59:57.562Z,30.01
2023-04-22T04:00:57.548Z,28.82
2023-04-22T04:01:57.550Z,32.23
2023-04-22T04:02:57.726Z,29.73
2023-04-22T04:03:57.637Z,30.03
2023-04-22T04:04:57.913Z,32.34
2023-04-22T04:05:57.629Z,30.72
2023-04-22T04:06:57.493Z,28.29
2023-04-22T04:07:57.494Z,26.79
2023-04-22T04:08:57.476Z,27.92
2023-04-22T04:09:57.469Z,29.17
2023-04-22T04:10:57.465Z,27.59
2023-04-22T04:11:58.436Z,30.50
2023-04-22T04:12:58.467Z,27.75
2023-04-22T04:13:57.495Z,31.22
2023-04-22T04:14:57.505Z,33.53
2023-04-22T04:15:57.574Z,29.75
2023-04-22T04:16:57.531Z,27.72
2023-04-22T04:17:57.565Z,26.68
2023-04-22T04:18:57.547Z,30.82
2023-04-22T04:19:57.558Z,29.55
2023-04-22T04:20:57.574Z,32.59
2023-04-22T04:21:57.587Z,27.50
2023-04-22T04:22:57.608Z,28.42
2023-04-22T04:23:57.614Z,28.78
2023-04-22T04:24:57.629Z,29.77
2023-04-22T04:25:57.647Z,29.22
2023-04-22T04:26:57.656Z,29.62
2023-04-22T04:27:57.672Z,27.54
2023-04-22T04:28:57.710Z,26.93
2023-04-22T04:29:57.693Z,26.65
2023-04-22T04:30:57.716Z,28.81
2023-04-22T04:31:57.719Z,27.96
2023-04-22T04:32:57.770Z,26.31
2023-04-22T04:33:57.743Z,28.65
2023-04-22T04:34:57.766Z,28.50
2023-04-22T04:35:57.778Z,26.56
2023-04-22T04:36:57.785Z,25.61
2023-04-22T04:37:57.793Z,26.53
2023-04-22T04:38:57.798Z,29.95
2023-04-22T04:39:57.811Z,30.88
2023-04-22T04:40:57.824Z,30.24
2023-04-22T04:41:57.836Z,29.98
2023-04-22T04:42:57.848Z,31.00
2023-04-22T04:43:57.874Z,32.40
2023-04-22T04:44:57.904Z,27.62
2023-04-22T04:45:57.923Z,27.06
2023-04-22T04:46:57.998Z,30.72
2023-04-22T04:47:57.966Z,32.50
2023-04-22T04:48:57.936Z,29.37
2023-04-22T04:49:57.962Z,28.42
2023-04-22T04:50:57.986Z,27.47
2023-04-22T04:51:58.013Z,28.91
2023-04-22T04:52:58.009Z,30.69
2023-04-22T04:53:57.997Z,30.41
2023-04-22T04:54:58.010Z,31.26
2023-04-22T04:55:58.057Z,29.10
2023-04-22T04:56:58.032Z,30.14
2023-04-22T04:57:58.041Z,28.12
2023-04-22T04:58:58.049Z,28.44
2023-04-22T04:59:58.082Z,28.36
2023-04-22T05:00:58.124Z,30.22
2023-04-22T05:01:58.148Z,31.17
2023-04-22T05:02:58.297Z,30.70
2023-04-22T05:03:58.354Z,28.82
2023-04-22T05:04:58.154Z,29.60
2023-04-22T05:05:58.183Z,29.63
2023-04-22T05:06:58.180Z,28.49
2023-04-22T05:07:58.173Z,29.75
2023-04-22T05:08:58.176Z,27.76
2023-04-22T05:09:58.197Z,31.90
2023-04-22T05:10:58.232Z,28.68
2023-04-22T05:11:58.233Z,30.31
2023-04-22T05:12:58.253Z,30.37
2023-04-22T05:13:58.265Z,29.34
2023-04-22T05:14:58.274Z,29.00
2023-04-22T05:15:58.361Z,31.30
2023-04-22T05:16:58.504Z,30.23
2023-04-22T05:17:58.411Z,28.03
2023-04-22T05:18:58.950Z,28.13
2023-04-22T05:19:58.342Z,28.67
2023-04-22T05:20:59.327Z,27.75
2023-04-22T05:21:58.363Z,27.85
2023-04-22T05:22:58.367Z,29.04
2023-04-22T05:23:58.372Z,31.16
2023-04-22T05:24:58.394Z,30.89
2023-04-22T05:25:58.453Z,29.02
2023-04-22T05:26:58.436Z,26.99
2023-04-22T05:27:58.444Z,31.60
2023-04-22T05:29:05.773Z,30.64
2023-04-22T05:29:58.451Z,31.23
2023-04-22T05:30:58.485Z,31.49
2023-04-22T05:31:58.507Z,32.65
2023-04-22T05:32:58.482Z,31.17
2023-04-22T05:33:58.431Z,32.56
2023-04-22T05:34:58.957Z,25.86
2023-04-22T05:35:58.472Z,31.08
2023-04-22T05:36:58.422Z,33.04
2023-04-22T05:37:58.399Z,28.65
2023-04-22T05:38:58.386Z,30.82
2023-04-22T05:39:58.381Z,28.56
2023-04-22T05:40:58.487Z,30.36
2023-04-22T05:41:58.424Z,30.21
2023-04-22T05:42:58.431Z,30.48
2023-04-22T05:43:58.445Z,30.74
2023-04-22T05:44:58.464Z,28.88
2023-04-22T05:45:58.539Z,28.69
2023-04-22T05:46:58.487Z,28.05
2023-04-22T05:47:58.601Z,28.85
2023-04-22T05:48:58.528Z,29.06
2023-04-22T05:49:58.506Z,31.05
2023-04-22T05:50:58.529Z,25.00
2023-04-22T05:51:58.531Z,29.43
2023-04-22T05:52:58.537Z,29.07
2023-04-22T05:53:58.536Z,29.64
2023-04-22T05:54:58.540Z,26.18
2023-04-22T05:55:58.550Z,26.48
2023-04-22T05:56:58.564Z,27.41
2023-04-22T05:57:58.570Z,29.85
2023-04-22T05:58:58.568Z,27.54
2023-04-22T05:59:58.569Z,29.46
2023-04-22T06:00:58.602Z,27.09
2023-04-22T06:01:58.617Z,29.74
2023-04-22T06:02:58.705Z,29.41
2023-04-22T06:03:58.975Z,27.68
2023-04-22T06:04:59.046Z,28.50
2023-04-22T06:05:58.839Z,27.02
2023-04-22T06:06:59.802Z,27.83
2023-04-22T06:07:58.642Z,29.65
2023-04-22T06:08:58.652Z,30.32
2023-04-22T06:10:04.575Z,30.72
2023-04-22T06:10:59.023Z,30.92
2023-04-22T06:11:59.008Z,31.11
2023-04-22T06:12:59.029Z,31.59
2023-04-22T06:13:59.024Z,31.28
2023-04-22T06:14:59.018Z,29.09
2023-04-22T06:15:59.055Z,32.51
2023-04-22T06:16:59.012Z,28.95
2023-04-22T06:17:59.013Z,29.23
2023-04-22T06:18:58.992Z,31.01
2023-04-22T06:19:58.611Z,28.99
2023-04-22T06:20:58.975Z,29.13
2023-04-22T06:21:58.592Z,29.21
2023-04-22T06:22:58.589Z,27.59
2023-04-22T06:23:58.579Z,27.28
2023-04-22T06:24:58.572Z,29.08
2023-04-22T06:25:58.591Z,30.64
2023-04-22T06:26:58.563Z,31.48
2023-04-22T06:27:59.821Z,29.77
2023-04-22T06:28:58.564Z,28.35
2023-04-22T06:29:58.543Z,27.42
2023-04-22T06:30:58.560Z,28.69
2023-04-22T06:31:58.525Z,29.73
2023-04-22T06:32:58.579Z,26.74
2023-04-22T06:33:58.504Z,27.91
2023-04-22T06:34:58.500Z,27.76
2023-04-22T06:35:58.505Z,29.71
2023-04-22T06:36:58.506Z,30.65
2023-04-22T06:37:58.497Z,29.56
2023-04-22T06:38:58.482Z,28.41
2023-04-22T06:39:58.489Z,25.97
2023-04-22T06:40:58.506Z,27.23
2023-04-22T06:41:58.506Z,26.83
2023-04-22T06:42:58.506Z,28.95
2023-04-22T06:43:59.817Z,29.54
2023-04-22T06:44:58.526Z,29.16
2023-04-22T06:45:58.521Z,28.59
2023-04-22T06:46:58.614Z,30.49
2023-04-22T06:47:58.565Z,29.05
2023-04-22T06:48:58.553Z,28.80
2023-04-22T06:49:59.502Z,25.00
2023-04-22T06:50:58.571Z,30.06
2023-04-22T06:51:58.572Z,29.12
2023-04-22T06:52:58.609Z,28.82
2023-04-22T06:53:58.617Z,30.33
2023-04-22T06:54:59.000Z,30.98
2023-04-22T06:55:59.020Z,29.86
2023-04-22T06:56:59.036Z,30.95
2023-04-22T06:57:59.788Z,31.58
2023-04-22T06:58:59.007Z,29.24
2023-04-22T06:59:59.008Z,30.10
2023-04-22T07:00:59.026Z,30.84
2023-04-22T07:01:59.015Z,31.31
2023-04-22T07:02:59.555Z,32.06
2023-04-22T07:03:59.044Z,31.35
2023-04-22T07:04:59.015Z,27.32
2023-04-22T07:05:59.012Z,30.54
2023-04-22T07:06:59.005Z,32.27
2023-04-22T07:07:59.011Z,29.40
2023-04-22T07:08:59.031Z,31.03
2023-04-22T07:10:01.488Z,31.12
2023-04-22T07:10:59.491Z,35.16
2023-04-22T07:11:59.015Z,34.55
2023-04-22T07:12:59.007Z,31.63
2023-04-22T07:13:59.003Z,31.97
2023-04-22T07:14:59.491Z,32.93
2023-04-22T07:15:59.064Z,26.18
2023-04-22T07:16:59.008Z,26.28
2023-04-22T07:17:59.034Z,30.91
2023-04-22T07:18:59.009Z,27.00
2023-04-22T07:19:59.506Z,32.05
2023-04-22T07:20:59.016Z,31.95
2023-04-22T07:21:59.007Z,30.02
2023-04-22T07:22:59.026Z,31.40
2023-04-22T07:23:59.006Z,30.45
2023-04-22T07:24:59.026Z,30.63
2023-04-22T07:25:59.010Z,29.20
2023-04-22T07:26:59.006Z,30.24
2023-04-22T07:27:59.006Z,27.70
2023-04-22T07:28:58.965Z,29.52
2023-04-22T07:29:58.963Z,32.27
2023-04-22T07:30:59.011Z,28.71
2023-04-22T07:31:58.615Z,29.98
2023-04-22T07:32:58.646Z,28.25
2023-04-22T07:33:58.593Z,26.62
2023-04-22T07:34:58.575Z,30.03
2023-04-22T07:35:58.968Z,28.06
2023-04-22T07:36:58.563Z,30.14
2023-04-22T07:37:58.556Z,32.04
2023-04-22T07:38:58.554Z,27.83
2023-04-22T07:39:58.548Z,27.98
2023-04-22T07:40:58.613Z,27.25
2023-04-22T07:41:59.507Z,30.74
2023-04-22T07:42:58.524Z,28.07
2023-04-22T07:43:58.514Z,26.15
2023-04-22T07:44:58.502Z,28.76
2023-04-22T07:45:58.578Z,29.66
2023-04-22T07:46:58.491Z,28.92
2023-04-22T07:47:58.531Z,29.33
2023-04-22T07:48:58.508Z,28.06
2023-04-22T07:49:58.476Z,28.07
2023-04-22T07:50:58.480Z,29.38
2023-04-22T07:51:58.458Z,26.72
2023-04-22T07:52:58.456Z,28.78
2023-04-22T07:53:58.444Z,31.68
2023-04-22T07:54:58.430Z,30.02
2023-04-22T07:55:59.806Z,33.82
2023-04-22T07:56:58.458Z,33.91
2023-04-22T07:57:58.423Z,32.17
2023-04-22T07:58:58.408Z,31.47
2023-04-22T07:59:58.400Z,32.06
2023-04-22T08:00:58.507Z,29.68
2023-04-22T08:01:58.420Z,30.31
2023-04-22T08:02:58.554Z,31.86
2023-04-22T08:03:58.831Z,32.00
2023-04-22T08:04:58.426Z,27.26
2023-04-22T08:05:58.404Z,30.21
2023-04-22T08:06:58.368Z,30.67
2023-04-22T08:07:59.017Z,30.04
2023-04-22T08:08:58.339Z,28.11
2023-04-22T08:09:58.344Z,31.20
2023-04-22T08:10:58.370Z,30.41
2023-04-22T08:11:58.348Z,31.89
2023-04-22T08:12:58.356Z,28.25
2023-04-22T08:13:58.312Z,27.78
2023-04-22T08:14:59.034Z,30.44
2023-04-22T08:15:58.341Z,30.65
2023-04-22T08:16:58.299Z,29.19
2023-04-22T08:17:59.076Z,28.37
2023-04-22T08:18:58.283Z,30.99
2023-04-22T08:19:58.290Z,26.05
2023-04-22T08:20:58.337Z,27.74
2023-04-22T08:21:59.031Z,32.12
2023-04-22T08:22:58.558Z,30.40
2023-04-22T08:23:58.251Z,28.99
2023-04-22T08:24:58.248Z,30.20
2023-04-22T08:25:58.273Z,32.01
2023-04-22T08:26:58.233Z,31.37
2023-04-22T08:27:58.238Z,29.16
2023-04-22T08:28:58.243Z,30.96
2023-04-22T08:29:59.041Z,32.61
2023-04-22T08:30:58.259Z,33.09
2023-04-22T08:31:59.034Z,30.81
2023-04-22T08:32:58.234Z,33.83
2023-04-22T08:33:59.038Z,30.08
2023-04-22T08:35:04.362Z,27.51
2023-04-22T08:35:58.206Z,28.02
2023-04-22T08:36:58.168Z,29.20
2023-04-22T08:37:59.042Z,30.75
2023-04-22T08:38:58.151Z,33.21
2023-04-22T08:39:59.054Z,35.85
2023-04-22T08:40:58.213Z,31.28
2023-04-22T08:41:58.182Z,31.88
2023-04-22T08:42:59.058Z,33.97
2023-04-22T08:43:59.040Z,33.62
2023-04-22T08:44:59.064Z,33.87
2023-04-22T08:45:58.148Z,33.63
2023-04-22T08:46:58.212Z,31.37
2023-04-22T08:47:59.088Z,28.52
2023-04-22T08:48:58.162Z,32.36
2023-04-22T08:49:58.137Z,33.81
2023-04-22T08:50:58.152Z,33.55
2023-04-22T08:51:59.043Z,32.79
2023-04-22T08:52:58.132Z,32.05
2023-04-22T08:53:58.131Z,35.01
2023-04-22T08:54:58.125Z,29.10
2023-04-22T08:55:58.598Z,29.16
2023-04-22T08:56:58.187Z,30.88
2023-04-22T08:57:58.129Z,30.79
2023-04-22T08:58:58.154Z,31.77
2023-04-22T08:59:58.124Z,32.72
2023-04-22T09:00:58.177Z,30.28
2023-04-22T09:01:58.724Z,30.79
2023-04-22T09:02:58.753Z,31.72
2023-04-22T09:03:58.667Z,34.24
2023-04-22T09:04:58.125Z,34.32
2023-04-22T09:05:58.153Z,29.76
2023-04-22T09:06:58.125Z,33.71
2023-04-22T09:07:58.138Z,31.14
2023-04-22T09:08:58.180Z,30.36
2023-04-22T09:09:58.131Z,33.11
2023-04-22T09:10:58.155Z,31.02
2023-04-22T09:11:58.123Z,34.37
2023-04-22T09:12:58.122Z,31.55
2023-04-22T09:13:58.125Z,30.39
2023-04-22T09:14:58.130Z,31.83
2023-04-22T09:15:59.896Z,34.56
2023-04-22T09:16:58.147Z,33.94
2023-04-22T09:17:58.158Z,37.46
2023-04-22T09:18:58.565Z,34.10
2023-04-22T09:19:58.123Z,38.45
2023-04-22T09:20:58.159Z,31.83
2023-04-22T09:21:58.124Z,35.97
2023-04-22T09:22:58.138Z,36.38
2023-04-22T09:23:58.151Z,34.10
2023-04-22T09:24:58.567Z,30.83
2023-04-22T09:25:58.151Z,32.11
2023-04-22T09:26:58.125Z,31.15
2023-04-22T09:27:58.122Z,31.89
2023-04-22T09:28:58.125Z,35.29
2023-04-22T09:29:58.124Z,31.47
2023-04-22T09:30:58.150Z,33.24
2023-04-22T09:31:58.155Z,33.06
2023-04-22T09:32:58.155Z,33.02
2023-04-22T09:33:58.120Z,32.22
2023-04-22T09:34:58.141Z,31.05
2023-04-22T09:35:58.198Z,34.43
2023-04-22T09:36:58.134Z,34.22
2023-04-22T09:37:58.141Z,33.92
2023-04-22T09:38:58.128Z,32.27
2023-04-22T09:39:58.131Z,33.82
2023-04-22T09:40:58.217Z,35.53
2023-04-22T09:41:58.123Z,35.19
2023-04-22T09:42:58.123Z,35.65
2023-04-22T09:43:58.133Z,36.45
2023-04-22T09:44:59.340Z,33.34
2023-04-22T09:45:58.167Z,37.23
2023-04-22T09:46:58.178Z,39.43
2023-04-22T09:47:57.816Z,39.83
2023-04-22T09:48:57.727Z,35.14
2023-04-22T09:49:58.569Z,34.41
2023-04-22T09:50:57.723Z,37.53
2023-04-22T09:51:57.684Z,32.87
2023-04-22T09:52:57.756Z,33.75
2023-04-22T09:53:57.665Z,33.91
2023-04-22T09:55:00.573Z,34.26
2023-04-22T09:55:57.698Z,34.43
2023-04-22T09:56:57.650Z,34.58
2023-04-22T09:57:57.673Z,34.60
2023-04-22T09:58:57.637Z,35.62
2023-04-22T09:59:57.631Z,33.28
2023-04-22T10:00:57.689Z,36.41
2023-04-22T10:01:57.620Z,37.09
2023-04-22T10:02:57.656Z,30.98
2023-04-22T10:03:57.657Z,34.77
2023-04-22T10:04:57.631Z,33.27
2023-04-22T10:05:58.151Z,34.27
2023-04-22T10:06:57.638Z,34.35
2023-04-22T10:07:57.625Z,35.16
2023-04-22T10:08:57.575Z,33.90
2023-04-22T10:09:57.568Z,34.78
2023-04-22T10:10:57.629Z,34.77
2023-04-22T10:11:58.126Z,35.58
2023-04-22T10:12:57.546Z,34.24
2023-04-22T10:13:57.538Z,37.03
2023-04-22T10:14:57.531Z,31.65
2023-04-22T10:15:57.558Z,35.29
2023-04-22T10:16:57.548Z,33.27
2023-04-22T10:17:57.539Z,32.87
2023-04-22T10:18:58.123Z,32.79
2023-04-22T10:19:57.495Z,32.86
2023-04-22T10:20:57.550Z,34.18
2023-04-22T10:21:58.120Z,36.56
2023-04-22T10:22:57.483Z,33.99
2023-04-22T10:23:57.554Z,36.57
2023-04-22T10:24:57.468Z,36.16
2023-04-22T10:25:57.498Z,32.63
2023-04-22T10:26:57.450Z,35.21
2023-04-22T10:27:57.445Z,34.55
2023-04-22T10:28:57.436Z,35.42
2023-04-22T10:29:57.435Z,36.01
2023-04-22T10:30:57.693Z,35.22
2023-04-22T10:31:57.456Z,35.43
2023-04-22T10:32:57.482Z,36.14
2023-04-22T10:33:58.115Z,35.44
2023-04-22T10:34:57.396Z,36.61
2023-04-22T10:35:57.412Z,34.69
2023-04-22T10:36:57.500Z,35.54
2023-04-22T10:37:57.374Z,35.43
2023-04-22T10:38:57.384Z,36.84
2023-04-22T10:39:57.367Z,34.35
2023-04-22T10:40:57.379Z,36.93
2023-04-22T10:41:57.356Z,38.24
2023-04-22T10:42:57.342Z,36.01
2023-04-22T10:43:57.346Z,36.10
2023-04-22T10:44:57.620Z,36.38
2023-04-22T10:45:57.352Z,39.60
2023-04-22T10:46:57.403Z,38.02
2023-04-22T10:47:57.377Z,35.18
2023-04-22T10:48:57.319Z,33.75
2023-04-22T10:49:57.347Z,35.70
2023-04-22T10:50:57.318Z,39.56
2023-04-22T10:51:57.306Z,33.14
2023-04-22T10:52:57.437Z,34.53
2023-04-22T10:53:57.281Z,35.62
2023-04-22T10:54:57.288Z,34.39
2023-04-22T10:55:57.270Z,37.29
2023-04-22T10:56:58.325Z,35.83
2023-04-22T10:57:57.624Z,37.65
2023-04-22T10:58:57.404Z,34.33
2023-04-22T10:59:57.399Z,38.51
2023-04-22T11:00:57.405Z,36.69
2023-04-22T11:01:57.490Z,37.31
2023-04-22T11:02:57.455Z,33.90
2023-04-22T11:03:57.567Z,36.24
2023-04-22T11:04:57.417Z,35.43
2023-04-22T11:05:57.608Z,38.14
2023-04-22T11:06:57.409Z,37.99
2023-04-22T11:07:57.409Z,37.83
2023-04-22T11:08:57.428Z,37.39
2023-04-22T11:09:58.124Z,34.52
2023-04-22T11:10:57.403Z,35.52
2023-04-22T11:11:57.663Z,38.20
2023-04-22T11:12:57.392Z,38.20
2023-04-22T11:13:57.406Z,35.58
2023-04-22T11:14:57.400Z,36.51
2023-04-22T11:15:57.414Z,38.53
2023-04-22T11:16:57.395Z,39.13
2023-04-22T11:17:57.460Z,37.35
2023-04-22T11:18:57.390Z,37.60
2023-04-22T11:19:57.392Z,36.20
2023-04-22T11:20:57.389Z,35.03
2023-04-22T11:21:57.394Z,40.46
2023-04-22T11:22:57.388Z,37.15
2023-04-22T11:23:57.384Z,38.79
2023-04-22T11:24:57.451Z,40.11
2023-04-22T11:25:57.402Z,37.61
2023-04-22T11:26:57.387Z,38.16
2023-04-22T11:27:57.374Z,39.72
2023-04-22T11:28:57.388Z,41.55
2023-04-22T11:29:57.400Z,41.29
2023-04-22T11:30:57.441Z,37.52
2023-04-22T11:31:57.530Z,38.30
2023-04-22T11:32:57.448Z,36.97
2023-04-22T11:33:58.124Z,42.33
2023-04-22T11:34:57.420Z,39.64
2023-04-22T11:35:57.491Z,41.73
2023-04-22T11:36:58.132Z,38.00
2023-04-22T11:37:57.417Z,41.41
2023-04-22T11:38:57.450Z,40.31
2023-04-22T11:40:17.369Z,37.35
2023-04-22T11:40:57.470Z,37.68
2023-04-22T11:41:57.633Z,38.67
2023-04-22T11:42:58.153Z,40.12
2023-04-22T11:43:57.407Z,39.77
2023-04-22T11:44:58.154Z,42.32
2023-04-22T11:45:57.811Z,40.77
2023-04-22T11:46:57.393Z,45.01
2023-04-22T11:47:57.385Z,40.98
2023-04-22T11:48:57.371Z,40.26
2023-04-22T11:49:57.365Z,43.14
2023-04-22T11:50:57.440Z,40.40
2023-04-22T11:51:57.378Z,40.83
2023-04-22T11:52:57.351Z,42.44
2023-04-22T11:53:57.342Z,41.67
2023-04-22T11:54:57.336Z,43.60
2023-04-22T11:55:57.325Z,41.63
2023-04-22T11:56:57.350Z,42.86
2023-04-22T11:57:57.635Z,41.26
2023-04-22T11:58:57.313Z,45.30
2023-04-22T11:59:58.144Z,39.57
2023-04-22T12:00:58.155Z,40.34
2023-04-22T12:01:57.368Z,42.58
2023-04-22T12:02:57.457Z,41.83
2023-04-22T12:03:57.395Z,41.89
2023-04-22T12:04:57.294Z,41.73
2023-04-22T12:05:58.132Z,41.51
2023-04-22T12:06:57.254Z,42.80
2023-04-22T12:07:57.275Z,39.23
2023-04-22T12:08:57.244Z,42.20
2023-04-22T12:09:57.232Z,41.82
2023-04-22T12:10:57.222Z,43.93
2023-04-22T12:11:57.220Z,40.80
2023-04-22T12:12:58.154Z,43.03
2023-04-22T12:13:57.205Z,41.78
2023-04-22T12:14:57.195Z,42.78
2023-04-22T12:15:57.189Z,39.31
2023-04-22T12:16:57.202Z,40.53
2023-04-22T12:17:57.201Z,41.97
2023-04-22T12:18:57.163Z,44.40
2023-04-22T12:19:57.153Z,42.51
2023-04-22T12:20:57.148Z,45.69
2023-04-22T12:21:57.659Z,43.98
2023-04-22T12:22:57.140Z,42.46
2023-04-22T12:23:57.150Z,42.58
2023-04-22T12:24:57.130Z,43.75
2023-04-22T12:25:57.122Z,44.28
2023-04-22T12:26:57.147Z,42.84
2023-04-22T12:27:57.152Z,42.14
2023-04-22T12:28:57.205Z,44.90
2023-04-22T12:29:57.202Z,43.04
2023-04-22T12:30:58.158Z,41.02
2023-04-22T12:31:57.228Z,41.02
2023-04-22T12:32:57.231Z,40.60
2023-04-22T12:33:57.283Z,44.32
2023-04-22T12:34:57.247Z,46.28
2023-04-22T12:35:57.258Z,43.96
2023-04-22T12:36:57.260Z,44.20
2023-04-22T12:37:57.305Z,42.51
2023-04-22T12:38:57.653Z,47.35
2023-04-22T12:39:58.154Z,44.01
2023-04-22T12:40:57.334Z,45.55
2023-04-22T12:41:57.361Z,43.27
2023-04-22T12:42:58.157Z,43.28
2023-04-22T12:43:57.662Z,42.84
2023-04-22T12:44:57.529Z,47.46
2023-04-22T12:45:57.586Z,44.12
2023-04-22T12:46:57.675Z,47.15
2023-04-22T12:47:59.032Z,45.22
2023-04-22T12:48:57.729Z,46.29
2023-04-22T12:49:58.129Z,48.53
2023-04-22T12:50:58.152Z,43.96
2023-04-22T12:51:58.132Z,47.57
2023-04-22T12:52:58.126Z,42.82